100LL.CA
Aviation Fuel Pricing for Canadians
Please upgrade your browser - Tested with IE9, FireFox, Chrome, Safari

Fuel Airports Other Help
Prices Economy Info List METAR/TAF Kneeboard Help

Reference Airport: PRINCETON, BC
N 49 28 04.3922  W 120 30 44.9059
Provinces to show:

CYDC PRINCETON, BC
WEATHER
METARCYDC 131900Z VRB02KT 25SM FEW260 13/00 A2992 RMK CI1 CI TR SLP143 DENSITY ALT 2600FT
OTHER SITES

FlightAware

FltPlan

Google Maps

SkyVector
FUEL
FBO 100LL
member
100LL
public
JETA MOGAS
Opr (2023-07-24)2.9532.330
  Note: Two courtesy cars available, plus free WiFi
Canada Flight Supplement - CYDC
(opens in new tab/window)


Please Send Updates!

Desktop Version ]  [ Mobile Version ]  [ Disclaimer ]